Time;durP1;ratioP1;P1;durP2;ratioP2;P2;SDS_P1;SDS_P2;PMS_P1;PMS_P2;Temp;Humidity;BMP_temperature;BMP_pressure;BME280_temperature;BME280_humidity;BME280_pressure;Samples;Min_cycle;Max_cycle;Signal;HPM_P1;HPM_P2
2022/06/27 00:01:16;;;;;;;4.05;2.95;;;20.20;99.90;;;;;;5125210;27;20024;-89
2022/06/27 00:03:47;;;;;;;6.43;3.05;;;20.20;99.90;;;;;;5125048;27;20121;-90
2022/06/27 00:06:21;;;;;;;;;;;20.10;99.90;;;;;;5045613;28;20039;-90
2022/06/27 00:08:48;;;;;;;5.32;2.80;;;20.10;99.90;;;;;;5040916;28;19956;-91
2022/06/27 00:11:18;;;;;;;8.38;2.95;;;20.10;99.90;;;;;;5077263;27;20017;-90
2022/06/27 00:13:46;;;;;;;6.07;2.88;;;20.10;99.90;;;;;;5071916;27;20021;-91
2022/06/27 00:16:14;;;;;;;6.75;2.80;;;20.10;99.90;;;;;;5126121;27;20031;-89
2022/06/27 00:18:40;;;;;;;5.07;2.92;;;20.10;99.90;;;;;;5032658;27;20676;-90
2022/06/27 00:21:06;;;;;;;5.13;2.55;;;20.10;99.90;;;;;;5127504;27;20044;-90
2022/06/27 00:23:34;;;;;;;5.93;2.85;;;20.00;99.90;;;;;;5023807;28;20120;-90
2022/06/27 00:26:00;;;;;;;4.93;2.72;;;20.00;99.90;;;;;;5044723;28;20025;-90
2022/06/27 00:28:30;;;;;;;5.30;2.58;;;20.00;99.90;;;;;;5106413;27;20025;-90
2022/06/27 00:30:56;;;;;;;5.45;2.45;;;20.00;99.90;;;;;;5043871;27;20052;-90
2022/06/27 00:33:22;;;;;;;5.50;2.55;;;20.00;99.90;;;;;;5131537;27;20468;-91
2022/06/27 00:35:53;;;;;;;6.07;2.97;;;20.00;99.90;;;;;;5129735;27;20492;-91
2022/06/27 00:38:21;;;;;;;4.05;2.60;;;20.00;99.90;;;;;;5140392;27;20024;-91
2022/06/27 00:40:49;;;;;;;5.40;2.63;;;20.00;99.90;;;;;;5129430;27;20043;-90
2022/06/27 00:43:15;;;;;;;6.95;3.03;;;19.90;99.90;;;;;;5113707;27;20016;-93
2022/06/27 00:45:40;;;;;;;5.43;2.92;;;19.90;99.90;;;;;;5124070;27;20075;-90
2022/06/27 00:48:09;;;;;;;6.15;2.75;;;19.90;99.90;;;;;;5098442;28;20375;-90
2022/06/27 00:50:40;;;;;;;5.10;2.47;;;19.90;99.90;;;;;;5106290;27;20020;-90
2022/06/27 00:53:13;;;;;;;6.20;2.60;;;19.90;99.90;;;;;;5128698;27;20019;-90
2022/06/27 00:55:42;;;;;;;5.60;2.67;;;19.90;99.90;;;;;;5113188;27;20015;-89
2022/06/27 00:58:08;;;;;;;3.92;2.55;;;19.90;99.90;;;;;;5114191;27;20019;-90
2022/06/27 01:00:40;;;;;;;6.35;2.88;;;19.90;99.90;;;;;;5111349;27;20463;-90
2022/06/27 01:03:05;;;;;;;5.60;3.10;;;19.90;99.90;;;;;;5121337;27;20035;-90
2022/06/27 01:05:31;;;;;;;6.00;2.90;;;19.90;99.90;;;;;;5106096;27;20019;-91
2022/06/27 01:07:57;;;;;;;4.45;2.72;;;19.90;99.90;;;;;;5109188;27;20015;-90
2022/06/27 01:10:25;;;;;;;7.78;2.70;;;19.80;99.90;;;;;;5112676;27;20480;-90
2022/06/27 01:12:51;;;;;;;6.70;3.00;;;19.80;99.90;;;;;;5099900;27;20023;-90
2022/06/27 01:15:18;;;;;;;6.60;2.88;;;19.80;99.90;;;;;;5115849;27;20493;-90
2022/06/27 01:17:49;;;;;;;5.15;2.75;;;19.80;99.90;;;;;;5111871;27;20019;-90
2022/06/27 01:20:17;;;;;;;;;;;19.80;99.90;;;;;;5108656;27;20023;-90
2022/06/27 01:22:45;;;;;;;5.47;2.90;;;19.80;99.90;;;;;;5111014;27;19915;-90
2022/06/27 01:25:14;;;;;;;5.90;2.90;;;19.80;99.90;;;;;;5089019;27;20114;-91
2022/06/27 01:27:40;;;;;;;6.32;3.35;;;19.80;99.90;;;;;;5105843;27;20023;-90
2022/06/27 01:30:06;;;;;;;8.07;3.20;;;19.80;99.90;;;;;;5128554;27;20038;-90
2022/06/27 01:32:37;;;;;;;6.20;3.38;;;19.70;99.90;;;;;;5110003;28;20027;-91
2022/06/27 01:35:06;;;;;;;5.63;3.10;;;19.80;99.90;;;;;;5105637;27;20475;-90
2022/06/27 01:37:32;;;;;;;6.35;3.03;;;19.70;99.90;;;;;;5111748;28;20024;-90
2022/06/27 01:40:00;;;;;;;6.78;3.45;;;19.80;99.90;;;;;;5125414;27;20052;-90
2022/06/27 01:42:28;;;;;;;5.93;3.05;;;19.70;99.90;;;;;;5024919;28;20105;-90
2022/06/27 01:44:54;;;;;;;4.60;2.63;;;19.70;99.90;;;;;;5024419;28;20098;-90
2022/06/27 01:47:20;;;;;;;5.97;2.72;;;19.70;99.90;;;;;;5041289;28;20018;-90
2022/06/27 01:49:46;;;;;;;7.25;3.03;;;19.70;99.90;;;;;;5121509;27;20523;-90
2022/06/27 01:52:15;;;;;;;6.05;3.17;;;19.70;99.90;;;;;;5143294;27;20023;-89
2022/06/27 01:54:42;;;;;;;8.30;3.05;;;19.70;99.90;;;;;;5028864;28;20458;-90
2022/06/27 01:57:08;;;;;;;5.97;3.38;;;19.70;99.90;;;;;;5023416;28;20013;-91
2022/06/27 01:59:37;;;;;;;6.18;3.33;;;19.70;99.90;;;;;;5031442;28;20021;-89
2022/06/27 02:02:06;;;;;;;8.43;3.63;;;19.70;99.90;;;;;;5020166;28;20402;-90
2022/06/27 02:04:45;;;;;;;6.95;3.42;;;19.70;99.90;;;;;;5024202;28;20484;-89
2022/06/27 02:07:12;;;;;;;4.97;3.10;;;19.70;99.90;;;;;;5018189;28;20483;-90
2022/06/27 02:09:39;;;;;;;5.40;3.10;;;19.70;99.90;;;;;;5018159;28;20018;-90
2022/06/27 02:12:18;;;;;;;5.05;3.03;;;19.70;99.90;;;;;;5023830;28;20021;-90
2022/06/27 02:15:04;;;;;;;6.50;3.33;;;19.70;99.90;;;;;;5016221;28;20085;-90
2022/06/27 02:17:35;;;;;;;6.30;3.55;;;19.70;99.90;;;;;;5028726;28;20025;-90
2022/06/27 02:20:08;;;;;;;6.72;3.35;;;19.60;99.90;;;;;;5025939;28;20017;-89
2022/06/27 02:22:41;;;;;;;5.72;3.42;;;19.60;99.90;;;;;;5041475;28;20033;-89
2022/06/27 02:25:07;;;;;;;9.25;3.83;;;19.60;99.90;;;;;;5126610;27;20021;-90
2022/06/27 02:27:35;;;;;;;6.15;3.60;;;19.60;99.90;;;;;;5027933;28;20468;-87
2022/06/27 02:30:15;;;;;;;5.38;3.60;;;19.60;99.90;;;;;;5039014;28;20060;-89
2022/06/27 02:32:41;;;;;;;7.70;3.90;;;19.60;99.90;;;;;;5027754;28;20464;-89
2022/06/27 02:35:07;;;;;;;8.10;3.97;;;19.60;99.90;;;;;;5031581;28;20029;-88
2022/06/27 02:37:34;;;;;;;9.32;4.50;;;19.60;99.90;;;;;;5062582;27;20018;-90
2022/06/27 02:40:01;;;;;;;10.70;4.55;;;19.60;99.90;;;;;;5024364;28;20038;-89
2022/06/27 02:42:35;;;;;;;8.50;3.97;;;19.60;99.90;;;;;;5047172;28;20113;-90
2022/06/27 02:45:04;;;;;;;7.32;4.10;;;19.60;99.90;;;;;;5019681;28;20041;-89
2022/06/27 02:47:34;;;;;;;8.23;4.35;;;19.60;99.90;;;;;;5014246;28;20041;-89
2022/06/27 02:50:01;;;;;;;7.53;4.38;;;19.50;99.90;;;;;;5036151;28;20058;-90
2022/06/27 02:52:32;;;;;;;7.47;4.35;;;19.50;99.90;;;;;;5023506;28;20019;-88
2022/06/27 02:55:10;;;;;;;7.95;4.43;;;19.50;99.90;;;;;;5029070;28;20029;-89
2022/06/27 02:57:43;;;;;;;8.18;4.40;;;19.50;99.90;;;;;;5018669;28;20034;-89
2022/06/27 03:00:10;;;;;;;6.63;4.68;;;19.50;99.90;;;;;;5034100;28;20014;-89
2022/06/27 03:02:38;;;;;;;8.68;4.80;;;19.50;99.90;;;;;;5031011;28;20021;-90
2022/06/27 03:05:04;;;;;;;9.13;4.63;;;19.50;99.90;;;;;;5036044;28;20014;-87
2022/06/27 03:07:35;;;;;;;7.85;4.45;;;19.50;99.90;;;;;;5037128;28;20055;-89
2022/06/27 03:10:02;;;;;;;6.45;4.43;;;19.50;99.90;;;;;;5036986;28;20013;-90
2022/06/27 03:12:33;;;;;;;7.60;4.57;;;19.50;99.90;;;;;;5047065;28;20036;-89
2022/06/27 03:15:15;;;;;;;7.75;4.70;;;19.50;99.90;;;;;;5135963;27;20006;-89
2022/06/27 03:17:41;;;;;;;8.63;4.75;;;19.50;99.90;;;;;;5021207;28;20029;-89
2022/06/27 03:20:07;;;;;;;7.43;4.90;;;19.50;99.90;;;;;;5009514;28;21981;-89
2022/06/27 03:22:33;;;;;;;8.60;4.45;;;19.40;99.90;;;;;;5012160;28;20057;-90
2022/06/27 03:25:08;;;;;;;5.90;4.28;;;19.50;99.90;;;;;;5003344;28;20046;-90
2022/06/27 03:27:36;;;;;;;6.57;4.50;;;19.40;99.90;;;;;;5012750;28;20108;-90
2022/06/27 03:30:02;;;;;;;8.65;5.38;;;19.40;99.90;;;;;;5008560;28;20347;-89
2022/06/27 03:32:28;;;;;;;9.20;4.93;;;19.40;99.90;;;;;;5009287;28;20179;-90
2022/06/27 03:34:54;;;;;;;8.52;4.95;;;19.40;99.90;;;;;;5008889;28;20531;-89
2022/06/27 03:37:26;;;;;;;8.65;5.40;;;19.40;99.90;;;;;;5030303;28;20039;-90
2022/06/27 03:39:58;;;;;;;8.15;5.05;;;19.40;99.90;;;;;;5025906;28;20500;-89
2022/06/27 03:42:27;;;;;;;8.35;4.97;;;19.40;99.90;;;;;;5111467;27;20496;-90
2022/06/27 03:44:55;;;;;;;8.98;5.13;;;19.40;99.90;;;;;;5030334;27;20025;-91
2022/06/27 03:47:28;;;;;;;8.88;4.85;;;19.40;99.90;;;;;;5117110;27;20044;-90
2022/06/27 03:50:00;;;;;;;9.45;5.82;;;19.40;99.90;;;;;;5133316;27;20029;-89
2022/06/27 03:52:25;;;;;;;8.60;5.45;;;19.40;99.90;;;;;;5021559;28;20022;-90
2022/06/27 03:55:07;;;;;;;7.90;5.55;;;19.40;99.90;;;;;;5052329;27;20018;-90
2022/06/27 03:57:56;;;;;;;8.15;5.53;;;19.30;99.90;;;;;;5034181;27;20136;-89
2022/06/27 04:00:32;;;;;;;7.97;5.40;;;19.30;99.90;;;;;;5024266;28;20028;-91
2022/06/27 04:02:59;;;;;;;7.35;5.63;;;19.30;99.90;;;;;;5045594;27;20074;-90
2022/06/27 04:05:25;;;;;;;11.05;5.30;;;19.30;99.90;;;;;;5061204;27;20036;-90
2022/06/27 04:07:51;;;;;;;8.15;4.72;;;19.30;99.90;;;;;;5019384;28;20083;-90
2022/06/27 04:10:20;;;;;;;9.32;5.00;;;19.30;99.90;;;;;;5031947;27;20017;-91
2022/06/27 04:12:45;;;;;;;8.43;4.68;;;19.20;99.90;;;;;;5025338;28;20078;-91
2022/06/27 04:15:11;;;;;;;7.22;4.38;;;19.20;99.90;;;;;;5118497;27;20451;-91
2022/06/27 04:17:38;;;;;;;8.18;4.97;;;19.30;99.90;;;;;;5029541;27;20025;-90
2022/06/27 04:20:05;;;;;;;8.02;4.55;;;19.30;99.90;;;;;;5045524;27;20021;-90
2022/06/27 04:22:30;;;;;;;7.15;4.65;;;19.30;99.90;;;;;;5025367;28;20033;-90
2022/06/27 04:25:06;;;;;;;7.00;4.03;;;19.30;99.90;;;;;;5034872;27;20044;-90
2022/06/27 04:27:40;;;;;;;6.53;4.50;;;19.20;99.90;;;;;;5024621;28;20029;-90
2022/06/27 04:30:09;;;;;;;5.75;3.88;;;19.30;99.90;;;;;;5050244;28;20025;-90
2022/06/27 04:32:35;;;;;;;5.40;4.10;;;19.30;99.90;;;;;;5052418;27;20527;-90
2022/06/27 04:35:02;;;;;;;8.65;4.10;;;19.30;99.90;;;;;;5115256;27;20125;-90
2022/06/27 04:37:30;;;;;;;8.43;4.25;;;19.30;99.90;;;;;;5032636;28;20080;-90
2022/06/27 04:39:58;;;;;;;8.32;4.50;;;19.30;99.90;;;;;;5027149;27;20097;-91
2022/06/27 04:42:24;;;;;;;8.20;4.32;;;19.30;99.90;;;;;;5107843;27;20037;-90
2022/06/27 04:44:52;;;;;;;8.60;4.03;;;19.30;99.90;;;;;;5128179;27;20026;-89
2022/06/27 04:47:19;;;;;;;6.65;4.18;;;19.30;99.90;;;;;;5111010;27;20025;-90
2022/06/27 04:49:47;;;;;;;6.68;4.07;;;19.30;99.90;;;;;;5138474;27;20122;-90
2022/06/27 04:52:16;;;;;;;6.70;4.22;;;19.30;99.90;;;;;;5138224;27;20037;-90
2022/06/27 04:54:43;;;;;;;6.55;4.70;;;19.30;99.90;;;;;;5139179;27;20112;-90
2022/06/27 04:57:12;;;;;;;8.50;4.68;;;19.30;99.90;;;;;;5138257;27;20468;-90
2022/06/27 04:59:38;;;;;;;6.78;4.50;;;19.30;99.90;;;;;;5119830;27;20093;-89
2022/06/27 05:02:04;;;;;;;8.30;5.03;;;19.30;99.90;;;;;;5138166;27;20025;-91
2022/06/27 05:04:30;;;;;;;8.20;4.82;;;19.30;99.90;;;;;;5138044;27;20529;-90
2022/06/27 05:06:56;;;;;;;7.55;4.80;;;19.40;99.90;;;;;;5138183;27;20409;-87
2022/06/27 05:09:22;;;;;;;8.30;4.80;;;19.40;99.90;;;;;;5137563;27;20093;-93
2022/06/27 05:11:53;;;;;;;6.72;5.25;;;19.40;99.90;;;;;;5137759;27;20021;-91
2022/06/27 05:14:19;;;;;;;9.43;5.28;;;19.40;99.90;;;;;;5033491;28;20024;-91
2022/06/27 05:16:44;;;;;;;10.05;5.43;;;19.40;99.90;;;;;;5138003;27;20025;-91
2022/06/27 05:19:12;;;;;;;7.82;5.18;;;19.40;99.90;;;;;;5138005;27;20017;-91
2022/06/27 05:21:44;;;;;;;8.90;6.28;;;19.40;99.90;;;;;;5143294;27;20037;-87
2022/06/27 05:24:11;;;;;;;9.18;7.03;;;19.40;99.90;;;;;;5039582;28;20078;-91
2022/06/27 05:26:40;;;;;;;8.63;6.78;;;19.40;99.90;;;;;;5139348;27;20025;-91
2022/06/27 05:29:22;;;;;;;10.05;7.05;;;19.40;99.90;;;;;;5052670;28;20464;-92
2022/06/27 05:31:50;;;;;;;8.57;6.65;;;19.50;99.90;;;;;;5034763;28;20464;-91
2022/06/27 05:34:16;;;;;;;11.15;8.43;;;19.50;99.90;;;;;;5128123;27;20131;-91
2022/06/27 05:36:44;;;;;;;9.20;7.53;;;19.50;99.90;;;;;;5048262;28;20112;-91
2022/06/27 05:39:10;;;;;;;11.25;8.02;;;19.50;99.90;;;;;;5111123;28;20047;-91
2022/06/27 05:41:36;;;;;;;9.88;7.60;;;19.50;99.90;;;;;;5134790;27;20035;-90
2022/06/27 05:44:05;;;;;;;10.73;7.93;;;19.50;99.90;;;;;;5115503;28;20027;-91
2022/06/27 05:46:33;;;;;;;11.43;7.63;;;19.50;99.90;;;;;;5115071;28;20020;-90
2022/06/27 05:49:22;;;;;;;9.55;7.80;;;19.50;99.90;;;;;;5133242;28;20076;-91
2022/06/27 05:51:50;;;;;;;9.98;7.75;;;19.50;99.90;;;;;;5116584;28;20022;-91
2022/06/27 05:54:16;;;;;;;9.77;6.97;;;19.50;99.90;;;;;;5118563;28;20023;-91
2022/06/27 05:56:44;;;;;;;10.48;7.68;;;19.50;99.90;;;;;;5117529;28;20102;-91
2022/06/27 05:59:18;;;;;;;9.10;7.30;;;19.50;99.90;;;;;;5116362;28;20419;-90
2022/06/27 06:01:46;;;;;;;10.25;7.10;;;19.50;99.90;;;;;;5135532;28;20023;-91
2022/06/27 06:04:12;;;;;;;10.40;7.90;;;19.50;99.90;;;;;;5116579;28;20084;-90
2022/06/27 06:06:46;;;;;;;11.48;7.50;;;19.50;99.90;;;;;;5116893;28;20054;-93
2022/06/27 06:09:13;;;;;;;11.40;7.35;;;19.50;99.90;;;;;;5116876;28;20018;-92
2022/06/27 06:11:40;;;;;;;11.57;7.20;;;19.50;99.90;;;;;;5137746;28;20019;-93
2022/06/27 06:14:08;;;;;;;9.40;7.43;;;19.50;99.90;;;;;;5119560;28;20015;-93
2022/06/27 06:16:34;;;;;;;9.35;7.82;;;19.50;99.90;;;;;;5118279;28;20027;-89
2022/06/27 06:19:00;;;;;;;8.52;7.50;;;19.50;99.90;;;;;;5118394;28;20028;-92
2022/06/27 06:21:29;;;;;;;9.93;7.65;;;19.40;99.90;;;;;;5117458;28;20019;-92
2022/06/27 06:24:03;;;;;;;13.98;8.02;;;19.50;99.90;;;;;;5117163;28;20519;-92
2022/06/27 06:26:31;;;;;;;10.38;7.38;;;19.50;99.90;;;;;;5136658;27;20091;-92
2022/06/27 06:29:12;;;;;;;11.80;7.70;;;19.50;99.90;;;;;;5139564;28;20027;-91
2022/06/27 06:31:43;;;;;;;9.15;7.70;;;19.50;99.90;;;;;;5134989;28;20030;-91
2022/06/27 06:34:09;;;;;;;9.75;7.43;;;19.50;99.90;;;;;;5104183;28;20127;-91
2022/06/27 06:36:39;;;;;;;10.10;6.15;;;19.50;99.90;;;;;;5120536;28;20022;-91
2022/06/27 06:39:23;;;;;;;10.18;7.40;;;19.50;99.90;;;;;;5083064;27;1229803;-92
2022/06/27 06:41:58;;;;;;;9.40;6.65;;;19.50;99.90;;;;;;5155923;27;20022;-91
2022/06/27 06:44:25;;;;;;;9.20;6.20;;;19.50;99.90;;;;;;5163738;27;20018;-90
2022/06/27 06:46:55;;;;;;;12.75;6.70;;;19.50;99.90;;;;;;5165556;27;20083;-91
2022/06/27 06:49:23;;;;;;;8.93;6.30;;;19.50;99.90;;;;;;5165104;27;20009;-90
2022/06/27 06:51:50;;;;;;;8.88;6.35;;;19.50;99.90;;;;;;5164931;27;20041;-90
2022/06/27 06:54:20;;;;;;;8.15;6.22;;;19.60;99.90;;;;;;5164691;27;20024;-91
2022/06/27 06:56:52;;;;;;;9.60;6.88;;;19.50;99.90;;;;;;5164448;27;20027;-91
2022/06/27 06:59:19;;;;;;;10.95;6.90;;;19.50;99.90;;;;;;5182804;27;20015;-91
2022/06/27 07:01:47;;;;;;;11.45;6.70;;;19.50;99.90;;;;;;5164570;27;20010;-91
2022/06/27 07:04:14;;;;;;;9.38;6.68;;;19.60;99.90;;;;;;5162998;27;20046;-91
2022/06/27 07:06:43;;;;;;;8.57;6.82;;;19.60;99.90;;;;;;5162544;27;20023;-92
2022/06/27 07:09:09;;;;;;;7.50;6.38;;;19.60;99.90;;;;;;5182771;27;20022;-91
2022/06/27 07:11:39;;;;;;;10.82;7.32;;;19.60;99.90;;;;;;5164539;27;20015;-91
2022/06/27 07:14:07;;;;;;;8.75;6.80;;;19.60;99.90;;;;;;5164818;27;20007;-91
2022/06/27 07:16:37;;;;;;;10.75;7.47;;;19.60;99.90;;;;;;5164170;27;20022;-91
2022/06/27 07:19:06;;;;;;;10.15;7.40;;;19.60;99.90;;;;;;5164699;27;20068;-91
2022/06/27 07:22:00;;;;;;;;;;;;;;;;;;;;;
2022/06/27 07:24:43;;;;;;;;;;;;;;;;;;;;;
2022/06/27 07:27:33;;;;;;;;;;;;;;;;;;;;;
2022/06/27 07:33:07;;;;;;;12.57;7.80;;;19.70;99.90;;;;;;5070303;27;20115;-90
2022/06/27 07:35:35;;;;;;;9.85;7.75;;;19.70;99.90;;;;;;5130283;27;20034;-89
2022/06/27 07:38:03;;;;;;;8.88;7.20;;;19.70;99.90;;;;;;5023509;28;20479;-87
2022/06/27 07:40:34;;;;;;;14.07;8.48;;;19.70;99.90;;;;;;5015571;28;20049;-91
2022/06/27 07:43:00;;;;;;;8.63;7.07;;;19.80;99.90;;;;;;5016846;28;20086;-89
2022/06/27 07:45:27;;;;;;;11.55;8.07;;;19.80;99.90;;;;;;5016096;28;20436;-91
2022/06/27 07:48:05;;;;;;;11.27;7.93;;;19.80;99.90;;;;;;5016275;28;20026;-95
2022/06/27 07:50:40;;;;;;;10.60;8.45;;;19.80;99.90;;;;;;5033385;28;20158;-92
2022/06/27 07:53:12;;;;;;;11.40;8.30;;;19.80;99.90;;;;;;5017184;28;20029;-91
2022/06/27 07:55:40;;;;;;;10.13;8.48;;;19.80;99.90;;;;;;5016426;28;20110;-92
2022/06/27 07:58:13;;;;;;;11.38;8.73;;;19.80;99.90;;;;;;5034916;28;20021;-91
2022/06/27 08:01:03;;;;;;;13.63;8.43;;;19.80;99.90;;;;;;5016199;28;20350;-89
2022/06/27 08:03:42;;;;;;;11.82;8.45;;;19.80;99.90;;;;;;5016215;28;20041;-91
2022/06/27 08:06:28;;;;;;;11.30;8.13;;;19.80;99.90;;;;;;5017252;28;20102;-92
2022/06/27 08:08:57;;;;;;;13.77;8.48;;;19.80;99.90;;;;;;5015358;28;20099;-87
2022/06/27 08:12:19;;;;;;;;;;;;;;;;;;;;;
2022/06/27 08:18:48;;;;;;;;;;;;;;;;;;;;;
2022/06/27 08:21:48;;;;;;;;;;;;;;;;;;;;;
2022/06/27 08:24:28;;;;;;;11.68;8.77;;;19.90;99.90;;;;;;5050931;28;20033;-91
2022/06/27 08:26:57;;;;;;;14.23;9.20;;;19.90;99.90;;;;;;5048566;28;20108;-92
2022/06/27 08:29:47;;;;;;;;;;;;;;;;;;;;;
2022/06/27 08:32:25;;;;;;;;;;;;;;;;;;;;;
2022/06/27 08:35:03;;;;;;;12.50;9.10;;;19.90;99.90;;;;;;5063316;27;20033;-91
2022/06/27 08:37:34;;;;;;;10.93;9.30;;;19.90;99.90;;;;;;5034751;28;20025;-90
2022/06/27 08:40:08;;;;;;;12.07;8.82;;;19.90;99.90;;;;;;5044013;28;20076;-91
2022/06/27 08:42:47;;;;;;;;;;;;;;;;;;;;;
2022/06/27 08:45:19;;;;;;;11.23;8.25;;;19.90;99.90;;;;;;5051396;28;20043;-91
2022/06/27 08:48:23;;;;;;;12.80;8.65;;;20.00;99.90;;;;;;5051374;28;20021;-91
2022/06/27 08:50:52;;;;;;;12.27;8.90;;;20.00;99.90;;;;;;5051211;28;20029;-91
2022/06/27 08:53:23;;;;;;;9.75;7.68;;;20.00;99.90;;;;;;5035285;28;20056;-90
2022/06/27 08:55:49;;;;;;;10.45;7.70;;;20.10;99.90;;;;;;5052148;28;20414;-91
2022/06/27 08:58:32;;;;;;;10.65;8.02;;;20.10;99.90;;;;;;5051545;28;20025;-93
2022/06/27 09:01:06;;;;;;;11.32;7.70;;;20.10;99.90;;;;;;5051113;28;20041;-93
2022/06/27 09:03:36;;;;;;;10.60;7.40;;;20.10;99.90;;;;;;5040303;28;20085;-93
2022/06/27 09:06:07;;;;;;;8.15;6.05;;;20.10;99.90;;;;;;5058373;28;20025;-92
2022/06/27 09:08:37;;;;;;;;;;;20.10;99.90;;;;;;5058114;28;20067;-92
2022/06/27 09:11:10;;;;;;;8.30;5.70;;;20.10;99.90;;;;;;5057686;27;20359;-92
2022/06/27 09:13:59;;;;;;;6.80;5.18;;;20.10;99.90;;;;;;5042586;28;20041;-92
2022/06/27 09:16:37;;;;;;;7.55;5.32;;;20.10;99.90;;;;;;5089177;27;20048;-92
2022/06/27 09:20:03;;;;;;;6.45;4.40;;;20.10;99.90;;;;;;5096476;27;20089;-91
2022/06/27 09:22:39;;;;;;;5.38;4.25;;;20.20;99.90;;;;;;5097918;27;20033;-91
2022/06/27 09:25:22;;;;;;;;;;;;;;;;;;;;;
2022/06/27 09:28:04;;;;;;;9.80;4.57;;;20.30;99.90;;;;;;5118475;27;20090;-92
2022/06/27 09:30:43;;;;;;;;;;;;;;;;;;;;;
2022/06/27 09:33:22;;;;;;;;;;;;;;;;;;;;;
2022/06/27 09:36:08;;;;;;;;;;;;;;;;;;;;;
2022/06/27 09:38:37;;;;;;;8.27;5.13;;;20.30;99.90;;;;;;5092324;27;20454;-92
2022/06/27 09:41:10;;;;;;;9.60;6.22;;;20.30;99.90;;;;;;5105909;27;20055;-92
2022/06/27 09:44:20;;;;;;;8.02;5.07;;;20.30;99.90;;;;;;5095850;27;20043;-92
2022/06/27 09:46:58;;;;;;;8.95;4.63;;;20.40;99.90;;;;;;5092335;28;20029;-93
2022/06/27 09:50:36;;;;;;;6.45;3.80;;;20.40;99.90;;;;;;5094075;27;20036;-90
2022/06/27 09:53:18;;;;;;;;;;;;;;;;;;;;;
2022/06/27 09:56:18;;;;;;;;;;;;;;;;;;;;;
2022/06/27 09:58:57;;;;;;;;;;;;;;;;;;;;;
2022/06/27 10:01:32;;;;;;;5.63;3.85;;;20.40;99.90;;;;;;5071544;27;20118;-92
2022/06/27 10:04:00;;;;;;;7.32;4.47;;;20.40;99.90;;;;;;5151974;27;20046;-92
2022/06/27 10:06:26;;;;;;;6.32;4.20;;;20.40;99.90;;;;;;5154924;27;20094;-94
2022/06/27 10:08:52;;;;;;;7.63;4.25;;;20.40;99.90;;;;;;5126250;27;20045;-95
2022/06/27 10:11:20;;;;;;;7.15;4.13;;;20.40;99.90;;;;;;5125761;27;20062;-94
2022/06/27 10:14:12;;;;;;;7.93;4.65;;;20.50;99.90;;;;;;5121555;27;20449;-94
2022/06/27 10:16:58;;;;;;;6.80;3.55;;;20.50;99.90;;;;;;5054021;28;20032;-94
2022/06/27 10:19:28;;;;;;;6.80;4.10;;;20.60;99.90;;;;;;5052849;28;20166;-93
2022/06/27 10:21:56;;;;;;;7.37;4.53;;;20.60;99.90;;;;;;5070083;27;20025;-93
2022/06/27 10:24:21;;;;;;;10.25;5.38;;;20.60;99.90;;;;;;5054268;28;20294;-94
2022/06/27 10:26:50;;;;;;;11.07;5.53;;;20.70;99.90;;;;;;5053606;28;20029;-93
2022/06/27 10:29:29;;;;;;;9.25;5.30;;;20.70;99.90;;;;;;5062067;28;20036;-93
2022/06/27 10:31:55;;;;;;;11.07;5.60;;;20.70;99.90;;;;;;5072591;28;20074;-93
2022/06/27 10:34:46;;;;;;;6.95;4.85;;;20.70;99.90;;;;;;5076995;27;20031;-91
2022/06/27 10:37:21;;;;;;;7.10;5.07;;;20.70;99.90;;;;;;5077552;27;20009;-92
2022/06/27 10:39:47;;;;;;;9.40;4.60;;;20.80;99.90;;;;;;5070044;28;20071;-90
2022/06/27 10:42:48;;;;;;;6.30;4.85;;;20.80;99.90;;;;;;5070827;28;20025;-90
2022/06/27 10:45:20;;;;;;;8.32;4.78;;;20.90;99.90;;;;;;5075436;28;20044;-90
2022/06/27 10:47:46;;;;;;;6.72;4.35;;;20.90;99.90;;;;;;5058648;28;20025;-90
2022/06/27 10:50:17;;;;;;;6.82;3.95;;;20.90;99.90;;;;;;5054571;28;20036;-91
2022/06/27 10:52:44;;;;;;;6.90;4.00;;;20.90;99.90;;;;;;5053555;28;20037;-92
2022/06/27 10:55:29;;;;;;;7.38;3.97;;;20.90;99.90;;;;;;5053855;28;20025;-90
2022/06/27 10:57:56;;;;;;;6.78;4.22;;;21.00;99.90;;;;;;5054032;28;20018;-90
2022/06/27 11:01:18;;;;;;;7.68;4.43;;;21.00;99.90;;;;;;5053345;28;20029;-89
2022/06/27 11:03:44;;;;;;;7.95;4.05;;;21.00;99.90;;;;;;5013799;28;20034;-90
2022/06/27 11:06:13;;;;;;;10.10;5.32;;;21.00;99.90;;;;;;5053038;28;20066;-90
2022/06/27 11:08:40;;;;;;;7.30;4.18;;;21.00;99.90;;;;;;5054077;28;20036;-90
2022/06/27 11:11:07;;;;;;;6.75;3.58;;;21.00;99.90;;;;;;5036521;28;20116;-90
2022/06/27 11:13:36;;;;;;;8.60;4.05;;;21.00;99.90;;;;;;5052926;28;20033;-90
2022/06/27 11:16:03;;;;;;;6.95;3.65;;;21.00;99.90;;;;;;5052765;28;20021;-91
2022/06/27 11:18:46;;;;;;;8.00;4.75;;;21.10;99.90;;;;;;5053238;28;20045;-91
2022/06/27 11:21:15;;;;;;;6.40;4.05;;;21.10;99.90;;;;;;5053206;28;20021;-90
2022/06/27 11:23:51;;;;;;;7.47;4.55;;;21.10;99.90;;;;;;5053129;28;20033;-90
2022/06/27 11:26:19;;;;;;;8.55;4.00;;;21.20;99.90;;;;;;5054530;28;20052;-91
2022/06/27 11:34:14;;;;;;;7.32;3.72;;;21.20;99.90;;;;;;5053836;28;20411;-92
2022/06/27 11:36:40;;;;;;;6.75;3.35;;;21.30;99.90;;;;;;5053741;28;20468;-92
2022/06/27 11:39:06;;;;;;;7.15;2.90;;;21.30;99.90;;;;;;5052125;28;20056;-92
2022/06/27 11:41:37;;;;;;;7.20;3.13;;;21.30;99.90;;;;;;5036814;28;20025;-92
2022/06/27 11:44:08;;;;;;;6.82;3.55;;;21.30;99.90;;;;;;5052945;28;20064;-92
2022/06/27 11:46:51;;;;;;;7.45;3.10;;;21.30;99.90;;;;;;5053902;28;20040;-92
2022/06/27 11:49:28;;;;;;;4.13;2.33;;;21.30;99.80;;;;;;5053918;28;20516;-92
2022/06/27 11:51:59;;;;;;;4.20;2.53;;;21.30;99.80;;;;;;5053256;28;20029;-92
2022/06/27 11:54:25;;;;;;;5.28;2.30;;;21.30;99.90;;;;;;5052662;28;20047;-92
2022/06/27 11:56:53;;;;;;;5.70;2.53;;;21.30;99.70;;;;;;5051975;28;20453;-92
2022/06/27 11:59:19;;;;;;;5.68;2.10;;;21.30;99.20;;;;;;5036180;28;20021;-92
2022/06/27 12:02:03;;;;;;;7.13;2.70;;;21.40;98.90;;;;;;5052071;28;20037;-90
2022/06/27 12:04:32;;;;;;;4.32;2.17;;;21.40;98.10;;;;;;5051660;28;20029;-90
2022/06/27 12:07:05;;;;;;;4.78;2.40;;;21.40;97.50;;;;;;5053142;28;20146;-92
2022/06/27 12:09:45;;;;;;;4.97;2.25;;;21.40;97.60;;;;;;5053018;28;20029;-88
2022/06/27 12:12:17;;;;;;;4.90;2.30;;;21.40;97.40;;;;;;5051682;28;20021;-90
2022/06/27 12:14:48;;;;;;;6.95;2.53;;;21.40;97.00;;;;;;5049908;28;20055;-90
2022/06/27 12:17:14;;;;;;;5.53;2.38;;;21.40;97.10;;;;;;5021989;28;20022;-91
2022/06/27 12:19:43;;;;;;;6.53;3.28;;;21.40;96.60;;;;;;5030203;28;20021;-90
2022/06/27 12:22:12;;;;;;;5.88;3.25;;;21.40;96.80;;;;;;5029954;28;20047;-90
2022/06/27 12:24:40;;;;;;;5.40;3.17;;;21.50;97.00;;;;;;5032130;28;20101;-90
2022/06/27 12:27:08;;;;;;;6.55;2.90;;;21.50;97.10;;;;;;5031338;28;20225;-90
2022/06/27 12:29:34;;;;;;;7.32;3.00;;;21.60;97.10;;;;;;5032330;28;20051;-90
2022/06/27 12:32:00;;;;;;;9.63;3.60;;;21.60;97.00;;;;;;5051075;28;20018;-90
2022/06/27 12:34:28;;;;;;;6.45;3.50;;;21.60;97.00;;;;;;5033998;28;20055;-89
2022/06/27 12:36:53;;;;;;;8.43;3.85;;;21.70;97.00;;;;;;5035562;28;20033;-90
2022/06/27 12:39:19;;;;;;;6.97;3.58;;;21.70;96.90;;;;;;5041712;28;20204;-90
2022/06/27 12:41:45;;;;;;;10.43;4.18;;;21.70;96.70;;;;;;5039142;28;20025;-90
2022/06/27 12:44:14;;;;;;;10.02;3.70;;;21.70;96.30;;;;;;5063169;28;20033;-90
2022/06/27 12:46:39;;;;;;;7.15;3.20;;;21.70;96.10;;;;;;5059476;28;20095;-90
2022/06/27 12:49:08;;;;;;;10.38;3.70;;;21.70;95.90;;;;;;5037554;28;20465;-89
2022/06/27 12:51:37;;;;;;;6.80;3.50;;;21.80;96.00;;;;;;5040427;28;20021;-90
2022/06/27 12:54:05;;;;;;;6.18;3.30;;;21.80;95.80;;;;;;5144113;27;20199;-90
2022/06/27 12:56:40;;;;;;;7.25;3.38;;;21.80;96.10;;;;;;5053182;28;20033;-92
2022/06/27 12:59:06;;;;;;;5.38;2.88;;;21.80;96.00;;;;;;5119151;27;20026;-89
2022/06/27 13:01:37;;;;;;;7.75;3.55;;;21.80;95.80;;;;;;5018153;28;20025;-91
2022/06/27 13:04:02;;;;;;;;;;;21.80;95.60;;;;;;5032075;28;20025;-91
2022/06/27 13:06:31;;;;;;;5.40;3.05;;;21.90;96.00;;;;;;5046787;27;20352;-90
2022/06/27 13:08:59;;;;;;;7.25;2.90;;;21.90;96.30;;;;;;5141610;27;20014;-90
2022/06/27 13:11:24;;;;;;;7.65;2.70;;;21.90;96.40;;;;;;5067144;27;20037;-90
2022/06/27 13:14:01;;;;;;;7.47;2.90;;;21.90;96.30;;;;;;5106473;27;20088;-89
2022/06/27 13:16:27;;;;;;;6.75;3.20;;;21.90;96.40;;;;;;5104944;27;20116;-90
2022/06/27 13:18:55;;;;;;;5.50;2.95;;;22.00;96.70;;;;;;5035769;28;20059;-91
2022/06/27 13:21:21;;;;;;;6.63;3.03;;;22.00;96.70;;;;;;5034873;28;20026;-90
2022/06/27 13:23:47;;;;;;;5.03;2.53;;;22.00;97.10;;;;;;5035922;28;20120;-90
2022/06/27 13:26:18;;;;;;;7.70;2.92;;;22.00;97.40;;;;;;5020199;28;20060;-91
2022/06/27 13:28:47;;;;;;;5.05;2.95;;;22.00;97.50;;;;;;5053090;27;20362;-89
2022/06/27 13:31:12;;;;;;;7.07;3.28;;;22.10;97.70;;;;;;5107979;27;20065;-91
2022/06/27 13:33:41;;;;;;;7.13;3.03;;;22.10;97.90;;;;;;5124647;27;20027;-89
2022/06/27 13:36:08;;;;;;;7.28;3.35;;;22.10;97.80;;;;;;5051352;28;20036;-90
2022/06/27 13:38:38;;;;;;;12.15;3.45;;;22.10;97.70;;;;;;5051006;28;20107;-90
2022/06/27 13:41:07;;;;;;;9.07;4.13;;;22.10;97.70;;;;;;5102141;28;20108;-90